Time;durP1;ratioP1;P1;durP2;ratioP2;P2;SDS_P1;SDS_P2;PMS_P1;PMS_P2;Temp;Humidity;BMP_temperature;BMP_pressure;BME280_temperature;BME280_humidity;BME280_pressure;Samples;Min_cycle;Max_cycle;Signal;HPM_P1;HPM_P2
2021/11/07 00:00:30;;;;;;;;;;;;;;;;;;2100171;28;1268;-86
2021/11/07 00:01:50;;;;;;;;;;;;;;;;;;2091855;28;1399;-85
2021/11/07 00:03:01;;;;;;;;;;;;;;;;;;2097878;28;2045;-86
2021/11/07 00:04:09;;;;;;;;;;;;;;;;;;2109081;28;1229;-87
2021/11/07 00:05:22;;;;;;;;;;;;;;;;;;2108537;28;1292;-86
2021/11/07 00:06:32;;;;;;;;;;;;;;;;;;2103327;28;2025;-86
2021/11/07 00:07:47;;;;;;;;;;;;;;;;;;2100539;28;1318;-87
2021/11/07 00:08:54;;;;;;;;;;;;;;;;;;2108512;28;874;-87
2021/11/07 00:10:03;;;;;;;;;;;;;;;;;;2107535;28;1199;-87
2021/11/07 00:11:06;;;;;;;;;;;;;;;;;;2102997;28;2013;-87
2021/11/07 00:12:15;;;;;;;;;;;;;;;;;;2108041;28;1316;-86
2021/11/07 00:13:21;;;;;;;;;;;;;;;;;;2112991;28;1985;-85
2021/11/07 00:14:22;;;;;;;;;;;;;;;;;;2116693;28;1264;-85
2021/11/07 00:15:24;;;;;;;;;;;;;;;;;;2107756;28;1293;-85
2021/11/07 00:16:29;;;;;;;;;;;;;;;;;;2085611;28;1209;-85
2021/11/07 00:17:32;;;;;;;;;;;;;;;;;;2092005;28;1401;-85
2021/11/07 00:18:36;;;;;;;;;;;;;;;;;;2092181;28;2117;-84
2021/11/07 00:19:42;;;;;;;;;;;;;;;;;;2099930;28;1343;-84
2021/11/07 00:20:50;;;;;;;;;;;;;;;;;;2091739;28;1874;-83
2021/11/07 00:21:59;;;;;;;;;;;;;;;;;;2093364;28;1219;-84
2021/11/07 00:23:09;;;;;;;;;;;;;;;;;;2095184;28;1949;-84
2021/11/07 00:24:12;;;;;;;;;;;;;;;;;;2099990;28;1192;-84
2021/11/07 00:25:20;;;;;;;;;;;;;;;;;;2099832;28;1353;-84
2021/11/07 00:26:25;;;;;;;;;;;;;;;;;;2100679;28;1210;-84
2021/11/07 00:27:30;;;;;;;;;;;;;;;;;;2108081;28;1267;-84
2021/11/07 00:28:36;;;;;;;;;;;;;;;;;;2108019;28;2069;-84
2021/11/07 00:29:41;;;;;;;;;;;;;;;;;;2099463;28;1457;-83
2021/11/07 00:30:49;;;;;;;;;;;;;;;;;;2100065;28;2151;-85
2021/11/07 00:31:56;;;;;;;;;;;;;;;;;;2108906;28;1252;-84
2021/11/07 00:33:12;;;;;;;;;;;;;;;;;;2107621;28;1256;-89
2021/11/07 00:34:40;;;;;;;;;;;;;;;;;;2101580;28;1309;-84
2021/11/07 00:37:08;;;;;;;;;;;;;;;;;;2082177;28;1347;-84
2021/11/07 00:38:15;;;;;;;;;;;;;;;;;;2099223;28;1841;-84
2021/11/07 00:39:20;;;;;;;;;;;;;;;;;;2099807;28;1471;-84
2021/11/07 00:40:25;;;;;;;;;;;;;;;;;;2091598;28;1187;-83
2021/11/07 00:41:35;;;;;;;;;;;;;;;;;;2097750;28;2029;-84
2021/11/07 00:42:43;;;;;;;;;;;;;;;;;;2100680;28;1859;-86
2021/11/07 00:43:51;;;;;;;;;;;;;;;;;;2107614;28;873;-83
2021/11/07 00:44:57;;;;;;;;;;;;;;;;;;2107263;28;1352;-84
2021/11/07 00:46:07;;;;;;;;;;;;;;;;;;2099992;28;1205;-84
2021/11/07 00:47:23;;;;;;;;;;;;;;;;;;2100602;28;1209;-85
2021/11/07 00:48:27;;;;;;;;;;;;;;;;;;2105726;28;1468;-84
2021/11/07 00:49:33;;;;;;;;;;;;;;;;;;2091216;28;1359;-84
2021/11/07 00:50:45;;;;;;;;;;;;;;;;;;2101322;28;1285;-83
2021/11/07 00:52:01;;;;;;;;;;;;;;;;;;2107415;28;1325;-86
2021/11/07 00:53:16;;;;;;;;;;;;;;;;;;2104842;28;2043;-85
2021/11/07 00:54:27;;;;;;;;;;;;;;;;;;2110555;28;1433;-86
2021/11/07 00:55:35;;;;;;;;;;;;;;;;;;2116007;28;1418;-85
2021/11/07 00:56:41;;;;;;;;;;;;;;;;;;2108100;28;2139;-85
2021/11/07 00:57:55;;;;;;;;;;;;;;;;;;2092376;28;1375;-85
2021/11/07 00:59:09;;;;;;;;;;;;;;;;;;2102650;28;1231;-85
2021/11/07 01:00:18;;;;;;;;;;;;;;;;;;2115920;28;1360;-85
2021/11/07 01:01:22;;;;;;;;;;;;;;;;;;2110814;28;930;-85
2021/11/07 01:02:30;;;;;;;;;;;;;;;;;;2099367;28;1477;-84
2021/11/07 01:03:32;;;;;;;;;;;;;;;;;;2092356;28;1289;-85
2021/11/07 01:04:34;;;;;;;;;;;;;;;;;;2099247;28;1396;-85
2021/11/07 01:05:35;;;;;;;;;;;;;;;;;;2107372;28;1238;-85
2021/11/07 01:06:37;;;;;;;;;;;;;;;;;;2113336;28;2063;-85
2021/11/07 01:07:37;;;;;;;;;;;;;;;;;;2115962;28;2045;-85
2021/11/07 01:08:39;;;;;;;;;;;;;;;;;;2116011;28;1302;-84
2021/11/07 01:09:41;;;;;;;;;;;;;;;;;;2099413;28;1470;-87
2021/11/07 01:10:43;;;;;;;;;;;;;;;;;;2099343;28;1219;-87
2021/11/07 01:11:44;;;;;;;;;;;;;;;;;;2091295;28;1314;-85
2021/11/07 01:12:46;;;;;;;;;;;;;;;;;;2091174;28;1242;-86
2021/11/07 01:13:47;;;;;;;;;;;;;;;;;;2098561;28;1914;-83
2021/11/07 01:14:50;;;;;;;;;;;;;;;;;;2099265;28;1242;-86
2021/11/07 01:15:50;;;;;;;;;;;;;;;;;;2100082;28;1981;-87
2021/11/07 01:16:52;;;;;;;;;;;;;;;;;;2107509;28;1261;-87
2021/11/07 01:17:55;;;;;;;;;;;;;;;;;;2107696;28;1954;-87
2021/11/07 01:18:58;;;;;;;;;;;;;;;;;;2117111;28;1337;-87
2021/11/07 01:19:59;;;;;;;;;;;;;;;;;;2108498;28;1190;-88
2021/11/07 01:21:01;;;;;;;;;;;;;;;;;;2107314;28;2052;-86
2021/11/07 01:22:04;;;;;;;;;;;;;;;;;;2108383;28;1210;-87
2021/11/07 01:23:13;;;;;;;;;;;;;;;;;;2112931;28;2196;-86
2021/11/07 01:24:19;;;;;;;;;;;;;;;;;;2108617;28;1202;-85
2021/11/07 01:25:19;;;;;;;;;;;;;;;;;;2100796;28;1233;-86
2021/11/07 01:26:25;;;;;;;;;;;;;;;;;;2099905;28;2016;-86
2021/11/07 01:27:32;;;;;;;;;;;;;;;;;;2100170;28;1318;-86
2021/11/07 01:28:39;;;;;;;;;;;;;;;;;;2107360;28;1817;-86
2021/11/07 01:29:43;;;;;;;;;;;;;;;;;;2108371;28;1289;-85
2021/11/07 01:30:49;;;;;;;;;;;;;;;;;;2100136;28;2000;-85
2021/11/07 01:31:50;;;;;;;;;;;;;;;;;;2108441;28;776;-85
2021/11/07 01:32:59;;;;;;;;;;;;;;;;;;2108118;28;1982;-84
2021/11/07 01:34:02;;;;;;;;;;;;;;;;;;2101115;28;1910;-83
2021/11/07 01:35:08;;;;;;;;;;;;;;;;;;2100801;28;1210;-84
2021/11/07 01:36:22;;;;;;;;;;;;;;;;;;2101282;28;1217;-86
2021/11/07 01:37:27;;;;;;;;;;;;;;;;;;2102363;28;1183;-86
2021/11/07 01:38:29;;;;;;;;;;;;;;;;;;2116379;28;1883;-85
2021/11/07 01:39:40;;;;;;;;;;;;;;;;;;2117443;28;1416;-86
2021/11/07 01:40:43;;;;;;;;;;;;;;;;;;2110661;28;1219;-86
2021/11/07 01:41:59;;;;;;;;;;;;;;;;;;2109083;28;1230;-87
2021/11/07 01:43:01;;;;;;;;;;;;;;;;;;2109571;28;1982;-86
2021/11/07 01:44:03;;;;;;;;;;;;;;;;;;2109070;28;1222;-85
2021/11/07 01:45:11;;;;;;;;;;;;;;;;;;2108932;28;1369;-85
2021/11/07 01:46:23;;;;;;;;;;;;;;;;;;2110415;28;1358;-85
2021/11/07 01:47:26;;;;;;;;;;;;;;;;;;2110690;28;1242;-87
2021/11/07 01:48:30;;;;;;;;;;;;;;;;;;2108167;28;2105;-86
2021/11/07 01:49:46;;;;;;;;;;;;;;;;;;2109269;28;1364;-86
2021/11/07 01:50:52;;;;;;;;;;;;;;;;;;2101136;28;1341;-86
2021/11/07 01:52:00;;;;;;;;;;;;;;;;;;2101319;28;1308;-86
2021/11/07 01:53:06;;;;;;;;;;;;;;;;;;2105149;28;1368;-86
2021/11/07 01:54:17;;;;;;;;;;;;;;;;;;2101169;28;1971;-86
2021/11/07 01:55:19;;;;;;;;;;;;;;;;;;2100996;28;1415;-86
2021/11/07 01:56:21;;;;;;;;;;;;;;;;;;2103341;28;1778;-86
2021/11/07 01:57:23;;;;;;;;;;;;;;;;;;2100931;28;1353;-86
2021/11/07 01:58:26;;;;;;;;;;;;;;;;;;2106487;28;2098;-85
2021/11/07 01:59:27;;;;;;;;;;;;;;;;;;2105801;28;1461;-85
2021/11/07 02:00:32;;;;;;;;;;;;;;;;;;2108716;28;1372;-85
2021/11/07 02:01:33;;;;;;;;;;;;;;;;;;2100724;28;1367;-86
2021/11/07 02:02:37;;;;;;;;;;;;;;;;;;2100751;28;1368;-85
2021/11/07 02:03:38;;;;;;;;;;;;;;;;;;2108832;28;1318;-85
2021/11/07 02:04:45;;;;;;;;;;;;;;;;;;2109070;28;1313;-85
2021/11/07 02:05:45;;;;;;;;;;;;;;;;;;2092721;28;1265;-86
2021/11/07 02:06:50;;;;;;;;;;;;;;;;;;2092129;28;1339;-85
2021/11/07 02:07:52;;;;;;;;;;;;;;;;;;2101309;28;1529;-86
2021/11/07 02:08:54;;;;;;;;;;;;;;;;;;2108993;28;1394;-85
2021/11/07 02:09:54;;;;;;;;;;;;;;;;;;2100565;28;1481;-85
2021/11/07 02:10:57;;;;;;;;;;;;;;;;;;2108386;28;1421;-86
2021/11/07 02:11:58;;;;;;;;;;;;;;;;;;2109280;28;1415;-85
2021/11/07 02:13:00;;;;;;;;;;;;;;;;;;2108989;28;1346;-86
2021/11/07 02:14:01;;;;;;;;;;;;;;;;;;2116946;28;1913;-86
2021/11/07 02:15:07;;;;;;;;;;;;;;;;;;2109292;28;1312;-86
2021/11/07 02:16:07;;;;;;;;;;;;;;;;;;2093799;28;1512;-86
2021/11/07 02:17:11;;;;;;;;;;;;;;;;;;2100870;28;1202;-86
2021/11/07 02:18:13;;;;;;;;;;;;;;;;;;2112311;28;1316;-86
2021/11/07 02:19:16;;;;;;;;;;;;;;;;;;2100278;28;1360;-85
2021/11/07 02:20:34;;;;;;;;;;;;;;;;;;2101340;28;1274;-86
2021/11/07 02:21:38;;;;;;;;;;;;;;;;;;2108833;28;1890;-86
2021/11/07 02:22:40;;;;;;;;;;;;;;;;;;2109297;28;1435;-86
2021/11/07 02:23:43;;;;;;;;;;;;;;;;;;2092512;28;1396;-86
2021/11/07 02:24:44;;;;;;;;;;;;;;;;;;2092759;28;1348;-86
2021/11/07 02:25:48;;;;;;;;;;;;;;;;;;2108877;28;1338;-85
2021/11/07 02:26:51;;;;;;;;;;;;;;;;;;2109226;28;1183;-85
2021/11/07 02:27:53;;;;;;;;;;;;;;;;;;2111008;28;1244;-86
2021/11/07 02:28:54;;;;;;;;;;;;;;;;;;2116338;28;1189;-86
2021/11/07 02:29:56;;;;;;;;;;;;;;;;;;2108449;28;1342;-86
2021/11/07 02:30:58;;;;;;;;;;;;;;;;;;2114170;28;1834;-88
2021/11/07 02:32:00;;;;;;;;;;;;;;;;;;2100547;28;1234;-86
2021/11/07 02:33:01;;;;;;;;;;;;;;;;;;2108799;28;1224;-86
2021/11/07 02:34:03;;;;;;;;;;;;;;;;;;2108325;28;1909;-86
2021/11/07 02:35:04;;;;;;;;;;;;;;;;;;2100152;28;1438;-86
2021/11/07 02:36:07;;;;;;;;;;;;;;;;;;2108546;28;2080;-86
2021/11/07 02:37:12;;;;;;;;;;;;;;;;;;2108479;28;1337;-86
2021/11/07 02:38:13;;;;;;;;;;;;;;;;;;2108579;28;1384;-86
2021/11/07 02:39:15;;;;;;;;;;;;;;;;;;2108634;28;1233;-86
2021/11/07 02:40:18;;;;;;;;;;;;;;;;;;2108826;28;1265;-85
2021/11/07 02:41:19;;;;;;;;;;;;;;;;;;2099915;28;2009;-85
2021/11/07 02:42:21;;;;;;;;;;;;;;;;;;2100536;28;1304;-86
2021/11/07 02:43:22;;;;;;;;;;;;;;;;;;2098093;28;1483;-86
2021/11/07 02:44:28;;;;;;;;;;;;;;;;;;2091795;28;1351;-86
2021/11/07 02:45:29;;;;;;;;;;;;;;;;;;2101584;28;1119;-86
2021/11/07 02:46:31;;;;;;;;;;;;;;;;;;2115930;28;2015;-85
2021/11/07 02:47:32;;;;;;;;;;;;;;;;;;2109339;28;1022;-86
2021/11/07 02:48:34;;;;;;;;;;;;;;;;;;2108457;28;1300;-86
2021/11/07 02:49:35;;;;;;;;;;;;;;;;;;2108489;28;1363;-85
2021/11/07 02:50:37;;;;;;;;;;;;;;;;;;2116794;28;1405;-85
2021/11/07 02:51:38;;;;;;;;;;;;;;;;;;2099510;28;2082;-86
2021/11/07 02:52:43;;;;;;;;;;;;;;;;;;2099619;28;1359;-85
2021/11/07 02:53:43;;;;;;;;;;;;;;;;;;2116771;28;1412;-84
2021/11/07 02:54:45;;;;;;;;;;;;;;;;;;2108219;28;1914;-84
2021/11/07 02:55:46;;;;;;;;;;;;;;;;;;2107880;28;1198;-84
2021/11/07 02:56:49;;;;;;;;;;;;;;;;;;2108141;28;1333;-85
2021/11/07 02:57:53;;;;;;;;;;;;;;;;;;2100100;28;1223;-86
2021/11/07 02:58:54;;;;;;;;;;;;;;;;;;2100096;28;1336;-86
2021/11/07 02:59:57;;;;;;;;;;;;;;;;;;2108661;28;1221;-86
2021/11/07 03:01:00;;;;;;;;;;;;;;;;;;2108646;28;1238;-86
2021/11/07 03:02:03;;;;;;;;;;;;;;;;;;2108620;28;1233;-85
2021/11/07 03:03:05;;;;;;;;;;;;;;;;;;2092195;28;1287;-85
2021/11/07 03:04:07;;;;;;;;;;;;;;;;;;2091909;28;1322;-86
2021/11/07 03:05:11;;;;;;;;;;;;;;;;;;2100223;28;1262;-87
2021/11/07 03:06:12;;;;;;;;;;;;;;;;;;2108155;28;1419;-87
2021/11/07 03:07:15;;;;;;;;;;;;;;;;;;2099766;28;1380;-87
2021/11/07 03:08:17;;;;;;;;;;;;;;;;;;2097282;28;1280;-87
2021/11/07 03:09:21;;;;;;;;;;;;;;;;;;2117088;28;1080;-85
2021/11/07 03:10:23;;;;;;;;;;;;;;;;;;2116930;28;1285;-85
2021/11/07 03:11:25;;;;;;;;;;;;;;;;;;2102382;28;1290;-85
2021/11/07 03:12:27;;;;;;;;;;;;;;;;;;2099797;28;1218;-85
2021/11/07 03:13:28;;;;;;;;;;;;;;;;;;2099577;28;1345;-85
2021/11/07 03:14:32;;;;;;;;;;;;;;;;;;2099368;28;1918;-85
2021/11/07 03:15:34;;;;;;;;;;;;;;;;;;2099960;28;1344;-85
2021/11/07 03:16:36;;;;;;;;;;;;;;;;;;2099962;28;1291;-85
2021/11/07 03:17:38;;;;;;;;;;;;;;;;;;2099542;28;1306;-86
2021/11/07 03:18:39;;;;;;;;;;;;;;;;;;2100028;28;1340;-85
2021/11/07 03:19:42;;;;;;;;;;;;;;;;;;2099371;28;1211;-85
2021/11/07 03:20:42;;;;;;;;;;;;;;;;;;2091876;28;2045;-87
2021/11/07 03:21:44;;;;;;;;;;;;;;;;;;2091341;28;1306;-85
2021/11/07 03:22:45;;;;;;;;;;;;;;;;;;2099931;28;1420;-85
2021/11/07 03:23:51;;;;;;;;;;;;;;;;;;2107702;28;1338;-85
2021/11/07 03:24:54;;;;;;;;;;;;;;;;;;2116383;28;1272;-85
2021/11/07 03:26:02;;;;;;;;;;;;;;;;;;2100164;28;1228;-85
2021/11/07 03:27:11;;;;;;;;;;;;;;;;;;2100720;28;1415;-85
2021/11/07 03:28:14;;;;;;;;;;;;;;;;;;2101308;28;1421;-85
2021/11/07 03:29:15;;;;;;;;;;;;;;;;;;2099747;28;1279;-85
2021/11/07 03:30:24;;;;;;;;;;;;;;;;;;2091500;28;1259;-85
2021/11/07 03:31:31;;;;;;;;;;;;;;;;;;2101072;28;1451;-85
2021/11/07 03:32:37;;;;;;;;;;;;;;;;;;2100703;28;1571;-85
2021/11/07 03:33:41;;;;;;;;;;;;;;;;;;2100441;28;1211;-85
2021/11/07 03:34:46;;;;;;;;;;;;;;;;;;2108481;28;1965;-85
2021/11/07 03:35:48;;;;;;;;;;;;;;;;;;2108229;28;1098;-85
2021/11/07 03:36:51;;;;;;;;;;;;;;;;;;2108323;28;1195;-86
2021/11/07 03:37:56;;;;;;;;;;;;;;;;;;2110204;28;1374;-85
2021/11/07 03:39:00;;;;;;;;;;;;;;;;;;2108607;28;1539;-85
2021/11/07 03:40:03;;;;;;;;;;;;;;;;;;2116766;28;1324;-85
2021/11/07 03:41:05;;;;;;;;;;;;;;;;;;2105181;28;1917;-85
2021/11/07 03:42:07;;;;;;;;;;;;;;;;;;2099878;28;1279;-85
2021/11/07 03:43:09;;;;;;;;;;;;;;;;;;2107866;28;1407;-85
2021/11/07 03:44:11;;;;;;;;;;;;;;;;;;2107653;28;1323;-85
2021/11/07 03:45:13;;;;;;;;;;;;;;;;;;2107746;28;1318;-85
2021/11/07 03:46:14;;;;;;;;;;;;;;;;;;2103274;28;2044;-85
2021/11/07 03:47:16;;;;;;;;;;;;;;;;;;2107441;28;1289;-85
2021/11/07 03:48:17;;;;;;;;;;;;;;;;;;2107958;28;1254;-85
2021/11/07 03:49:19;;;;;;;;;;;;;;;;;;2107728;28;1360;-85
2021/11/07 03:50:20;;;;;;;;;;;;;;;;;;2116244;28;1459;-85
2021/11/07 03:51:24;;;;;;;;;;;;;;;;;;2108032;28;1372;-85
2021/11/07 03:52:26;;;;;;;;;;;;;;;;;;2108324;28;1242;-86
2021/11/07 03:53:27;;;;;;;;;;;;;;;;;;2116351;28;1487;-86
2021/11/07 03:54:31;;;;;;;;;;;;;;;;;;2116066;28;1974;-86
2021/11/07 03:55:32;;;;;;;;;;;;;;;;;;2108418;28;1246;-86
2021/11/07 03:56:34;;;;;;;;;;;;;;;;;;2100291;28;2075;-86
2021/11/07 03:57:35;;;;;;;;;;;;;;;;;;2099553;28;1244;-86
2021/11/07 03:58:37;;;;;;;;;;;;;;;;;;2091331;28;1952;-86
2021/11/07 03:59:39;;;;;;;;;;;;;;;;;;2083210;28;1228;-87
2021/11/07 04:00:41;;;;;;;;;;;;;;;;;;2091707;28;1194;-86
2021/11/07 04:01:42;;;;;;;;;;;;;;;;;;2098566;28;1361;-87
2021/11/07 04:02:44;;;;;;;;;;;;;;;;;;2099473;28;1352;-86
2021/11/07 04:03:45;;;;;;;;;;;;;;;;;;2099464;28;1294;-86
2021/11/07 04:04:47;;;;;;;;;;;;;;;;;;2091547;28;1292;-86
2021/11/07 04:05:48;;;;;;;;;;;;;;;;;;2083020;28;1282;-86
2021/11/07 04:06:50;;;;;;;;;;;;;;;;;;2090858;28;1244;-87
2021/11/07 04:07:53;;;;;;;;;;;;;;;;;;2102216;28;1106;-86
2021/11/07 04:08:56;;;;;;;;;;;;;;;;;;2108340;28;1384;-87
2021/11/07 04:09:58;;;;;;;;;;;;;;;;;;2091707;28;1079;-87
2021/11/07 04:11:01;;;;;;;;;;;;;;;;;;2091588;28;1257;-87
2021/11/07 04:12:01;;;;;;;;;;;;;;;;;;2099940;28;1438;-86
2021/11/07 04:13:05;;;;;;;;;;;;;;;;;;2098911;28;1299;-86
2021/11/07 04:14:08;;;;;;;;;;;;;;;;;;2099949;28;1242;-87
2021/11/07 04:15:10;;;;;;;;;;;;;;;;;;2099383;28;1914;-87
2021/11/07 04:16:11;;;;;;;;;;;;;;;;;;2099704;28;1913;-87
2021/11/07 04:17:13;;;;;;;;;;;;;;;;;;2107145;28;1313;-86
2021/11/07 04:18:15;;;;;;;;;;;;;;;;;;2099909;28;1346;-86
2021/11/07 04:19:16;;;;;;;;;;;;;;;;;;2099284;28;1340;-86
2021/11/07 04:20:18;;;;;;;;;;;;;;;;;;2099195;28;1362;-87
2021/11/07 04:21:20;;;;;;;;;;;;;;;;;;2104394;28;1317;-87
2021/11/07 04:22:22;;;;;;;;;;;;;;;;;;2107990;28;1272;-86
2021/11/07 04:23:23;;;;;;;;;;;;;;;;;;2099215;28;1329;-86
2021/11/07 04:24:25;;;;;;;;;;;;;;;;;;2099438;28;1199;-86
2021/11/07 04:25:29;;;;;;;;;;;;;;;;;;2091720;28;1510;-86
2021/11/07 04:26:31;;;;;;;;;;;;;;;;;;2108092;28;1496;-86
2021/11/07 04:27:32;;;;;;;;;;;;;;;;;;2099732;28;1409;-86
2021/11/07 04:28:34;;;;;;;;;;;;;;;;;;2099776;28;1340;-86
2021/11/07 04:29:35;;;;;;;;;;;;;;;;;;2099385;28;1206;-86
2021/11/07 04:30:37;;;;;;;;;;;;;;;;;;2099728;28;1528;-85
2021/11/07 04:31:38;;;;;;;;;;;;;;;;;;2107220;28;2017;-86
2021/11/07 04:32:40;;;;;;;;;;;;;;;;;;2107696;28;1203;-87
2021/11/07 04:33:40;;;;;;;;;;;;;;;;;;2099609;28;1302;-86
2021/11/07 04:34:43;;;;;;;;;;;;;;;;;;2099334;28;1910;-86
2021/11/07 04:35:44;;;;;;;;;;;;;;;;;;2099119;28;1286;-86
2021/11/07 04:36:46;;;;;;;;;;;;;;;;;;2099622;28;1430;-86
2021/11/07 04:37:49;;;;;;;;;;;;;;;;;;2099340;28;1373;-85
2021/11/07 04:38:50;;;;;;;;;;;;;;;;;;2099474;28;1377;-85
2021/11/07 04:39:52;;;;;;;;;;;;;;;;;;2099717;28;1278;-86
2021/11/07 04:40:59;;;;;;;;;;;;;;;;;;2099272;28;1207;-86
2021/11/07 04:42:04;;;;;;;;;;;;;;;;;;2108164;28;1013;-87
2021/11/07 04:43:05;;;;;;;;;;;;;;;;;;2107462;28;1501;-87
2021/11/07 04:44:10;;;;;;;;;;;;;;;;;;2099662;28;1206;-87
2021/11/07 04:45:12;;;;;;;;;;;;;;;;;;2107736;28;868;-87
2021/11/07 04:46:15;;;;;;;;;;;;;;;;;;2112288;28;2139;-88
2021/11/07 04:47:16;;;;;;;;;;;;;;;;;;2116285;28;1237;-87
2021/11/07 04:48:19;;;;;;;;;;;;;;;;;;2107334;28;1900;-86
2021/11/07 04:49:21;;;;;;;;;;;;;;;;;;2107990;28;1178;-86
2021/11/07 04:50:23;;;;;;;;;;;;;;;;;;2099620;28;1493;-87
2021/11/07 04:51:25;;;;;;;;;;;;;;;;;;2098313;28;1188;-87
2021/11/07 04:52:27;;;;;;;;;;;;;;;;;;2108674;28;1308;-87
2021/11/07 04:53:29;;;;;;;;;;;;;;;;;;2100754;28;1256;-87
2021/11/07 04:54:31;;;;;;;;;;;;;;;;;;2101624;28;1426;-87
2021/11/07 04:55:32;;;;;;;;;;;;;;;;;;2109606;28;1890;-86
2021/11/07 04:56:36;;;;;;;;;;;;;;;;;;2109493;28;1344;-86
2021/11/07 04:57:42;;;;;;;;;;;;;;;;;;2109161;28;1168;-86
2021/11/07 04:58:44;;;;;;;;;;;;;;;;;;2101239;28;1466;-85
2021/11/07 04:59:46;;;;;;;;;;;;;;;;;;2093238;28;1302;-85
2021/11/07 05:00:48;;;;;;;;;;;;;;;;;;2101181;28;1214;-86
2021/11/07 05:01:49;;;;;;;;;;;;;;;;;;2101262;28;1376;-85
2021/11/07 05:02:52;;;;;;;;;;;;;;;;;;2103104;28;1473;-88
2021/11/07 05:03:53;;;;;;;;;;;;;;;;;;2100663;28;1200;-88
2021/11/07 05:04:56;;;;;;;;;;;;;;;;;;2100673;28;1387;-87
2021/11/07 05:05:57;;;;;;;;;;;;;;;;;;2092933;28;1310;-87
2021/11/07 05:06:59;;;;;;;;;;;;;;;;;;2092295;28;1303;-88
2021/11/07 05:08:00;;;;;;;;;;;;;;;;;;2104418;28;2093;-87
2021/11/07 05:09:03;;;;;;;;;;;;;;;;;;2109439;28;1324;-88
2021/11/07 05:10:05;;;;;;;;;;;;;;;;;;2101429;28;1474;-87
2021/11/07 05:11:07;;;;;;;;;;;;;;;;;;2109047;28;1197;-87
2021/11/07 05:12:10;;;;;;;;;;;;;;;;;;2109078;28;1375;-86
2021/11/07 05:13:12;;;;;;;;;;;;;;;;;;2101046;28;1258;-86
2021/11/07 05:14:13;;;;;;;;;;;;;;;;;;2101180;28;1324;-87
2021/11/07 05:15:18;;;;;;;;;;;;;;;;;;2100720;28;1910;-87
2021/11/07 05:16:18;;;;;;;;;;;;;;;;;;2100981;28;1172;-86
2021/11/07 05:17:20;;;;;;;;;;;;;;;;;;2100699;28;1184;-87
2021/11/07 05:18:23;;;;;;;;;;;;;;;;;;2092802;28;1286;-86
2021/11/07 05:19:24;;;;;;;;;;;;;;;;;;2093208;28;1406;-87
2021/11/07 05:20:25;;;;;;;;;;;;;;;;;;2092782;28;1233;-87
2021/11/07 05:21:27;;;;;;;;;;;;;;;;;;2098808;28;1286;-85
2021/11/07 05:22:28;;;;;;;;;;;;;;;;;;2109316;28;1506;-86
2021/11/07 05:23:29;;;;;;;;;;;;;;;;;;2108886;28;2034;-85
2021/11/07 05:24:31;;;;;;;;;;;;;;;;;;2109489;28;1071;-85
2021/11/07 05:25:33;;;;;;;;;;;;;;;;;;2109243;28;1499;-85
2021/11/07 05:26:34;;;;;;;;;;;;;;;;;;2107748;28;2068;-84
2021/11/07 05:27:37;;;;;;;;;;;;;;;;;;2100935;28;1289;-85
2021/11/07 05:28:38;;;;;;;;;;;;;;;;;;2100644;28;1288;-84
2021/11/07 05:29:41;;;;;;;;;;;;;;;;;;2108929;28;1343;-85
2021/11/07 05:30:42;;;;;;;;;;;;;;;;;;2109384;28;912;-86
2021/11/07 05:31:44;;;;;;;;;;;;;;;;;;2109071;28;1300;-85
2021/11/07 05:32:45;;;;;;;;;;;;;;;;;;2100442;28;1371;-84
2021/11/07 05:33:47;;;;;;;;;;;;;;;;;;2108989;28;1349;-85
2021/11/07 05:34:48;;;;;;;;;;;;;;;;;;2109102;28;1467;-86
2021/11/07 05:35:49;;;;;;;;;;;;;;;;;;2109801;28;1882;-85
2021/11/07 05:36:51;;;;;;;;;;;;;;;;;;2101056;28;1263;-84
2021/11/07 05:37:53;;;;;;;;;;;;;;;;;;2108708;28;1208;-85
2021/11/07 05:38:54;;;;;;;;;;;;;;;;;;2100847;28;1199;-85
2021/11/07 05:39:55;;;;;;;;;;;;;;;;;;2100402;28;1262;-85
2021/11/07 05:40:57;;;;;;;;;;;;;;;;;;2109050;28;1309;-84
2021/11/07 05:41:58;;;;;;;;;;;;;;;;;;2117459;28;1173;-84
2021/11/07 05:43:03;;;;;;;;;;;;;;;;;;2114063;28;2105;-85
2021/11/07 05:44:04;;;;;;;;;;;;;;;;;;2109300;28;1331;-84
2021/11/07 05:45:06;;;;;;;;;;;;;;;;;;2108791;28;1413;-84
2021/11/07 05:46:09;;;;;;;;;;;;;;;;;;2108805;28;1238;-84
2021/11/07 05:47:11;;;;;;;;;;;;;;;;;;2108572;28;1323;-84
2021/11/07 05:48:12;;;;;;;;;;;;;;;;;;2100426;28;1223;-84
2021/11/07 05:49:14;;;;;;;;;;;;;;;;;;2084074;28;1313;-84
2021/11/07 05:50:15;;;;;;;;;;;;;;;;;;2084387;28;1258;-85
2021/11/07 05:51:17;;;;;;;;;;;;;;;;;;2104909;28;1240;-84
2021/11/07 05:52:19;;;;;;;;;;;;;;;;;;2109325;28;1220;-84
2021/11/07 05:53:21;;;;;;;;;;;;;;;;;;2109192;28;1258;-84
2021/11/07 05:54:22;;;;;;;;;;;;;;;;;;2101005;28;1354;-84
2021/11/07 05:55:24;;;;;;;;;;;;;;;;;;2099939;28;1918;-84
2021/11/07 05:56:25;;;;;;;;;;;;;;;;;;2108810;28;1293;-84
2021/11/07 05:57:28;;;;;;;;;;;;;;;;;;2109125;28;1352;-84
2021/11/07 05:58:30;;;;;;;;;;;;;;;;;;2108809;28;1286;-84
2021/11/07 05:59:32;;;;;;;;;;;;;;;;;;2100764;28;1374;-84
2021/11/07 06:00:33;;;;;;;;;;;;;;;;;;2108731;28;1324;-84
2021/11/07 06:01:35;;;;;;;;;;;;;;;;;;2100447;28;1321;-84
2021/11/07 06:02:37;;;;;;;;;;;;;;;;;;2100393;28;1216;-84
2021/11/07 06:03:39;;;;;;;;;;;;;;;;;;2108144;28;1344;-84
2021/11/07 06:04:41;;;;;;;;;;;;;;;;;;2109149;28;1230;-84
2021/11/07 06:05:44;;;;;;;;;;;;;;;;;;2108904;28;1416;-84
2021/11/07 06:06:45;;;;;;;;;;;;;;;;;;2100596;28;1338;-84
2021/11/07 06:07:48;;;;;;;;;;;;;;;;;;2100076;28;1296;-84
2021/11/07 06:08:51;;;;;;;;;;;;;;;;;;2108759;28;1294;-84
2021/11/07 06:09:54;;;;;;;;;;;;;;;;;;2108816;28;1456;-85
2021/11/07 06:10:57;;;;;;;;;;;;;;;;;;2102491;28;2060;-85
2021/11/07 06:11:58;;;;;;;;;;;;;;;;;;2109378;28;1347;-85
2021/11/07 06:13:00;;;;;;;;;;;;;;;;;;2103175;28;1501;-85
2021/11/07 06:14:03;;;;;;;;;;;;;;;;;;2108823;28;1424;-85
2021/11/07 06:15:05;;;;;;;;;;;;;;;;;;2108694;28;1218;-85
2021/11/07 06:16:06;;;;;;;;;;;;;;;;;;2100515;28;1910;-85
2021/11/07 06:17:09;;;;;;;;;;;;;;;;;;2100654;28;1463;-85
2021/11/07 06:18:11;;;;;;;;;;;;;;;;;;2109158;28;1466;-85
2021/11/07 06:19:13;;;;;;;;;;;;;;;;;;2108445;28;1223;-85
2021/11/07 06:20:14;;;;;;;;;;;;;;;;;;2108878;28;1322;-85
2021/11/07 06:21:15;;;;;;;;;;;;;;;;;;2117261;28;1292;-85
2021/11/07 06:22:17;;;;;;;;;;;;;;;;;;2108557;28;1263;-85
2021/11/07 06:23:19;;;;;;;;;;;;;;;;;;2100433;28;1292;-85
2021/11/07 06:24:24;;;;;;;;;;;;;;;;;;2108612;28;1400;-85
2021/11/07 06:25:27;;;;;;;;;;;;;;;;;;2109502;28;1275;-88
2021/11/07 06:26:49;;;;;;;;;;;;;;;;;;2108588;28;1363;-93
2021/11/07 06:27:56;;;;;;;;;;;;;;;;;;2097721;28;1152;-90
2021/11/07 06:29:01;;;;;;;;;;;;;;;;;;2100725;28;1274;-90
2021/11/07 06:30:18;;;;;;;;;;;;;;;;;;2092260;28;1372;-90
2021/11/07 06:31:42;;;;;;;;;;;;;;;;;;2094279;28;1293;-89
2021/11/07 06:33:06;;;;;;;;;;;;;;;;;;2090046;28;1388;-90
2021/11/07 06:34:25;;;;;;;;;;;;;;;;;;2097495;28;1410;-89
2021/11/07 06:35:49;;;;;;;;;;;;;;;;;;2103133;28;1979;-89
2021/11/07 06:37:10;;;;;;;;;;;;;;;;;;2103377;28;1284;-89
2021/11/07 06:38:13;;;;;;;;;;;;;;;;;;2108553;28;1290;-88
2021/11/07 06:39:17;;;;;;;;;;;;;;;;;;2100742;28;894;-88
2021/11/07 06:40:20;;;;;;;;;;;;;;;;;;2100871;28;1459;-89
2021/11/07 06:41:21;;;;;;;;;;;;;;;;;;2100055;28;1316;-88
2021/11/07 06:42:25;;;;;;;;;;;;;;;;;;2099387;28;1403;-89
2021/11/07 06:43:27;;;;;;;;;;;;;;;;;;2092241;28;1462;-89
2021/11/07 06:44:34;;;;;;;;;;;;;;;;;;2092374;28;1219;-89
2021/11/07 06:45:35;;;;;;;;;;;;;;;;;;2101017;28;861;-89
2021/11/07 06:46:38;;;;;;;;;;;;;;;;;;2100372;28;1222;-89
2021/11/07 06:47:39;;;;;;;;;;;;;;;;;;2100039;28;1192;-90
2021/11/07 06:48:44;;;;;;;;;;;;;;;;;;2117595;28;1419;-89
2021/11/07 06:49:49;;;;;;;;;;;;;;;;;;2101060;28;781;-89
2021/11/07 06:50:51;;;;;;;;;;;;;;;;;;2109099;28;1368;-89
2021/11/07 06:51:54;;;;;;;;;;;;;;;;;;2108404;28;1345;-89
2021/11/07 06:52:56;;;;;;;;;;;;;;;;;;2108722;28;1288;-89
2021/11/07 06:54:01;;;;;;;;;;;;;;;;;;2117427;28;933;-89
2021/11/07 06:55:05;;;;;;;;;;;;;;;;;;2117592;28;1106;-89
2021/11/07 06:56:06;;;;;;;;;;;;;;;;;;2116847;28;1906;-89
2021/11/07 06:57:13;;;;;;;;;;;;;;;;;;2109076;28;1262;-88
2021/11/07 06:58:13;;;;;;;;;;;;;;;;;;2103140;28;1991;-89
2021/11/07 06:59:15;;;;;;;;;;;;;;;;;;2099984;28;1370;-89
2021/11/07 07:00:18;;;;;;;;;;;;;;;;;;2107939;28;1462;-89
2021/11/07 07:01:23;;;;;;;;;;;;;;;;;;2108469;28;1221;-89
2021/11/07 07:02:26;;;;;;;;;;;;;;;;;;2108569;28;1436;-88
2021/11/07 07:03:28;;;;;;;;;;;;;;;;;;2100200;28;1293;-89
2021/11/07 07:04:29;;;;;;;;;;;;;;;;;;2108509;28;1265;-89
2021/11/07 07:05:31;;;;;;;;;;;;;;;;;;2099761;28;1341;-88
2021/11/07 07:06:34;;;;;;;;;;;;;;;;;;2108634;28;1530;-88
2021/11/07 07:07:38;;;;;;;;;;;;;;;;;;2108248;28;1364;-89
2021/11/07 07:08:43;;;;;;;;;;;;;;;;;;2100371;28;1355;-88
2021/11/07 07:09:54;;;;;;;;;;;;;;;;;;2100918;28;1312;-89
2021/11/07 07:10:59;;;;;;;;;;;;;;;;;;2101113;28;1990;-89
2021/11/07 07:12:15;;;;;;;;;;;;;;;;;;2100823;28;1460;-89
2021/11/07 07:13:20;;;;;;;;;;;;;;;;;;2108342;28;1453;-88
2021/11/07 07:14:26;;;;;;;;;;;;;;;;;;2109456;28;1319;-89
2021/11/07 07:15:30;;;;;;;;;;;;;;;;;;2099524;28;1281;-89
2021/11/07 07:16:42;;;;;;;;;;;;;;;;;;2100087;28;1240;-88
2021/11/07 07:17:52;;;;;;;;;;;;;;;;;;2108560;28;897;-88
2021/11/07 07:19:02;;;;;;;;;;;;;;;;;;2100201;28;1377;-88
2021/11/07 07:20:15;;;;;;;;;;;;;;;;;;2101286;28;1222;-88
2021/11/07 07:21:27;;;;;;;;;;;;;;;;;;2101764;28;1349;-88
2021/11/07 07:33:25;;;;;;;;;;;;;;;;;;2102166;28;1346;-88
2021/11/07 07:34:28;;;;;;;;;;;;;;;;;;2095177;28;1422;-88
2021/11/07 07:35:30;;;;;;;;;;;;;;;;;;2100232;28;1072;-88
2021/11/07 07:36:32;;;;;;;;;;;;;;;;;;2114815;28;1898;-88